Time;durP1;ratioP1;P1;durP2;ratioP2;P2;SDS_P1;SDS_P2;PMS_P1;PMS_P2;Temp;Humidity;BMP_temperature;BMP_pressure;BME280_temperature;BME280_humidity;BME280_pressure;Samples;Min_cycle;Max_cycle;Signal;HPM_P1;HPM_P2
2022/10/02 09:30:49;;;;;;;4.00;2.80;;;;;;;13.12;100.00;99073.28;5213641;27;20899;-78
2022/10/02 09:33:56;;;;;;;7.83;3.47;;;;;;;13.72;100.00;99077.09;5156583;27;39047;-77
2022/10/02 09:36:50;;;;;;;7.37;2.83;;;;;;;14.30;100.00;99066.53;5185464;27;41230;-77
2022/10/02 09:39:50;;;;;;;4.20;2.87;;;;;;;14.79;100.00;99067.34;5160495;27;43599;-77
2022/10/02 09:42:58;;;;;;;3.30;2.40;;;;;;;15.08;100.00;99071.31;5173337;27;41894;-77
2022/10/02 09:46:07;;;;;;;2.50;1.60;;;;;;;15.27;99.04;99071.56;5167003;27;39739;-77
2022/10/02 09:49:20;;;;;;;2.50;1.70;;;;;;;15.41;97.49;99083.81;5079602;27;40622;-77
2022/10/02 09:52:14;;;;;;;3.43;1.87;;;;;;;15.49;95.97;99075.19;5131281;27;43523;-78
2022/10/02 09:55:20;;;;;;;2.30;1.60;;;;;;;15.56;94.97;99079.13;5172889;27;42998;-79
2022/10/02 09:58:19;;;;;;;2.47;1.50;;;;;;;15.58;94.04;99063.84;5138899;27;39845;-77
2022/10/02 10:01:17;;;;;;;1.50;1.40;;;;;;;15.65;93.77;99062.38;5173355;27;40848;-77
2022/10/02 10:04:14;;;;;;;2.03;1.60;;;;;;;15.67;92.96;99060.44;5188884;27;42633;-77
2022/10/02 10:07:01;;;;;;;2.07;1.40;;;;;;;15.69;92.16;99056.69;5185498;27;41830;-77
2022/10/02 10:09:53;;;;;;;3.97;1.50;;;;;;;15.72;92.04;99060.88;5190969;27;39878;-77
2022/10/02 10:12:54;;;;;;;2.83;1.33;;;;;;;15.65;91.43;99051.69;5169963;27;41668;-77
2022/10/02 10:15:49;;;;;;;2.87;1.80;;;;;;;15.70;91.06;99058.34;5155666;27;41664;-78
2022/10/02 10:19:07;;;;;;;3.00;1.53;;;;;;;15.66;91.17;99053.38;5172687;27;42094;-78
2022/10/02 10:22:01;;;;;;;1.80;1.17;;;;;;;15.69;91.01;99054.00;5086237;28;39995;-77
2022/10/02 10:24:58;;;;;;;2.87;1.53;;;;;;;15.59;90.66;99037.00;5151128;27;41777;-77
2022/10/02 10:28:02;;;;;;;2.17;1.30;;;;;;;15.69;90.33;99050.47;5169707;27;42983;-78
2022/10/02 10:30:53;;;;;;;2.10;1.47;;;;;;;15.67;90.19;99052.41;5172218;27;44179;-77
2022/10/02 10:33:49;;;;;;;1.40;1.20;;;;;;;15.70;89.86;99062.88;5171943;27;39669;-77
2022/10/02 10:40:25;;;;;;;1.17;1.07;;;;;;;15.75;89.40;99064.16;5187028;27;42555;-77
2022/10/02 10:43:24;;;;;;;2.73;1.30;;;;;;;15.78;89.53;99055.06;5092807;28;42779;-77
2022/10/02 10:46:11;;;;;;;1.13;1.03;;;;;;;15.85;88.96;99058.94;5141095;27;39030;-78
2022/10/02 10:49:01;;;;;;;1.30;1.17;;;;;;;16.00;89.16;99084.41;5158268;27;40885;-76
2022/10/02 10:51:33;;;;;;;1.80;1.20;;;;;;;16.01;88.56;99080.75;5141004;27;45160;-78
2022/10/02 10:54:39;;;;;;;1.90;1.23;;;;;;;15.94;88.68;99082.25;5175228;27;42090;-76
2022/10/02 10:57:22;;;;;;;1.60;1.10;;;;;;;15.97;88.65;99090.00;5140572;27;41461;-79
2022/10/02 11:00:08;;;;;;;1.77;1.30;;;;;;;16.01;87.96;99088.78;5176603;27;42643;-76
2022/10/02 11:03:13;;;;;;;1.47;1.37;;;;;;;16.03;87.98;99094.84;5141117;27;42897;-77
2022/10/02 11:06:28;;;;;;;1.63;1.40;;;;;;;16.01;88.43;99091.44;5140862;27;43282;-78
2022/10/02 11:09:30;;;;;;;1.30;1.20;;;;;;;16.03;87.82;99091.34;5158081;27;39167;-78
2022/10/02 11:12:28;;;;;;;1.50;1.10;;;;;;;15.99;87.53;99079.19;5173801;27;42665;-79
2022/10/02 11:15:15;;;;;;;1.30;1.20;;;;;;;15.92;87.80;99069.97;5140217;27;41335;-78
2022/10/02 11:18:02;;;;;;;1.50;1.40;;;;;;;15.92;87.99;99062.81;5140987;27;41063;-79
2022/10/02 11:20:56;;;;;;;1.83;1.47;;;;;;;15.96;87.67;99064.25;5155170;27;40948;-77
2022/10/02 11:23:49;;;;;;;2.00;1.53;;;;;;;15.97;87.83;99065.94;5140527;27;40671;-78
2022/10/02 11:26:31;;;;;;;3.07;1.70;;;;;;;15.97;87.25;99073.13;5155494;27;42859;-77
2022/10/02 11:29:44;;;;;;;1.97;1.70;;;;;;;15.99;87.41;99064.00;5157411;27;42098;-78
2022/10/02 11:32:50;;;;;;;1.40;1.30;;;;;;;16.12;87.38;99063.84;5140403;27;38810;-78
2022/10/02 11:35:23;;;;;;;1.77;1.30;;;;;;;16.04;87.13;99037.78;5077787;28;40724;-77
2022/10/02 11:38:09;;;;;;;1.40;1.30;;;;;;;16.25;87.25;99071.72;5148643;27;42810;-77
2022/10/02 11:40:54;;;;;;;1.30;0.87;;;;;;;16.24;87.01;99072.69;5158071;27;42575;-76
2022/10/02 11:43:43;;;;;;;1.77;1.00;;;;;;;16.26;86.61;99081.44;5157708;27;38900;-77
2022/10/02 11:46:38;;;;;;;1.07;0.87;;;;;;;16.27;86.04;99075.97;5176048;27;42549;-77
2022/10/02 11:49:57;;;;;;;1.00;0.70;;;;;;;16.26;85.96;99073.41;5174652;27;43119;-77
2022/10/02 11:52:45;;;;;;;1.23;1.03;;;;;;;16.23;86.19;99066.50;5139119;27;43014;-77
2022/10/02 11:55:30;;;;;;;1.33;1.20;;;;;;;16.27;85.90;99067.09;5140163;27;38747;-78
2022/10/02 11:58:15;;;;;;;3.10;1.87;;;;;;;16.24;85.86;99059.31;5157702;27;40931;-77
2022/10/02 12:01:06;;;;;;;1.37;1.23;;;;;;;16.28;85.64;99074.16;5157226;27;43007;-77
2022/10/02 12:03:45;;;;;;;1.27;1.17;;;;;;;16.27;85.84;99073.28;5157386;27;42511;-78
2022/10/02 12:06:28;;;;;;;1.40;0.90;;;;;;;16.26;85.82;99070.75;5140268;27;40169;-77
2022/10/02 12:09:08;;;;;;;1.17;0.80;;;;;;;16.22;85.58;99071.97;5173950;27;41939;-78
2022/10/02 12:11:44;;;;;;;0.77;0.77;;;;;;;16.20;85.65;99071.22;5139968;27;44132;-77
2022/10/02 12:14:23;;;;;;;0.70;0.70;;;;;;;16.09;85.25;99051.59;5139739;27;41444;-78
2022/10/02 12:17:07;;;;;;;0.83;0.70;;;;;;;16.21;85.44;99078.28;5157194;27;40116;-79
2022/10/02 12:28:54;;;;;;;1.43;1.03;;;;;;;16.21;85.08;99094.31;5173184;27;39850;-77
2022/10/02 12:31:31;;;;;;;2.10;0.90;;;;;;;16.13;85.27;99077.09;5153900;27;41556;-80
2022/10/02 12:34:06;;;;;;;2.20;0.77;;;;;;;16.31;85.13;99101.47;5139347;27;43447;-79
2022/10/02 12:36:46;;;;;;;1.00;0.90;;;;;;;16.38;85.35;99091.97;5154040;27;43181;-78
2022/10/02 12:39:33;;;;;;;1.07;0.90;;;;;;;16.40;85.16;99094.53;5139960;27;39130;-77
2022/10/02 12:42:20;;;;;;;0.80;0.60;;;;;;;16.42;85.04;99097.91;5140196;27;41874;-80
2022/10/02 12:45:09;;;;;;;0.80;0.80;;;;;;;16.46;84.99;99096.66;5175230;27;42696;-77
2022/10/02 12:48:16;;;;;;;0.80;0.80;;;;;;;16.45;85.10;99098.50;5172511;27;43139;-78
2022/10/02 12:51:11;;;;;;;1.13;0.80;;;;;;;16.49;84.83;99096.41;5141555;27;39989;-79
2022/10/02 12:54:11;;;;;;;2.87;1.10;;;;;;;16.62;84.80;99088.22;5138870;27;43639;-79
2022/10/02 13:00:15;;;;;;;1.43;0.93;;;;;;;16.77;83.82;99076.28;5135899;27;42135;-76
2022/10/02 13:03:12;;;;;;;0.73;0.70;;;;;;;16.87;84.35;99078.03;5139200;27;41754;-77
2022/10/02 13:06:11;;;;;;;1.33;0.80;;;;;;;17.06;83.80;99081.84;5153395;27;42791;-79
2022/10/02 13:08:52;;;;;;;0.93;0.70;;;;;;;17.18;83.54;99078.94;5156335;27;42800;-77
2022/10/02 13:11:31;;;;;;;1.40;1.00;;;;;;;17.19;82.87;99085.13;5153446;27;42480;-78
2022/10/02 13:14:53;;;;;;;0.70;0.70;;;;;;;17.02;82.53;99085.75;5173437;27;40875;-77
2022/10/02 13:17:37;;;;;;;0.80;0.60;;;;;;;16.86;82.65;99073.66;5125901;27;42222;-78
2022/10/02 13:20:21;;;;;;;0.60;0.60;;;;;;;16.77;82.49;99085.16;5138775;27;44626;-79
2022/10/02 13:22:57;;;;;;;1.10;0.60;;;;;;;16.74;82.91;99077.38;5171749;27;42243;-78
2022/10/02 13:25:34;;;;;;;1.03;0.60;;;;;;;16.75;82.65;99084.44;5138920;27;40497;-78
2022/10/02 13:28:19;;;;;;;0.70;0.60;;;;;;;16.83;82.69;99078.44;5155607;27;40956;-79
2022/10/02 13:30:56;;;;;;;0.83;0.53;;;;;;;16.96;82.52;99086.25;5156003;27;43482;-77
2022/10/02 13:33:53;;;;;;;0.50;0.50;;;;;;;17.07;82.38;99084.38;5138479;27;42642;-79
2022/10/02 13:36:34;;;;;;;0.53;0.53;;;;;;;17.16;81.50;99078.25;5171758;27;39926;-78
2022/10/02 13:39:20;;;;;;;0.50;0.50;;;;;;;17.09;81.56;99070.84;5138941;27;40848;-77
2022/10/02 13:42:03;;;;;;;0.57;0.53;;;;;;;17.23;81.38;99086.56;5153585;27;41705;-79
2022/10/02 13:44:40;;;;;;;1.13;0.60;;;;;;;17.24;81.18;99090.94;5139104;27;42059;-78
2022/10/02 13:47:31;;;;;;;0.60;0.60;;;;;;;17.23;81.11;99086.56;5156293;27;41941;-78
2022/10/02 13:50:12;;;;;;;1.30;0.80;;;;;;;17.20;81.16;99082.34;5155693;27;42950;-77
2022/10/02 13:52:52;;;;;;;0.70;0.70;;;;;;;17.22;80.76;99083.06;5155805;27;42083;-77
2022/10/02 13:55:24;;;;;;;0.70;0.70;;;;;;;16.92;80.38;99032.19;5138599;27;42661;-78
2022/10/02 13:58:14;;;;;;;0.70;0.50;;;;;;;17.13;80.60;99083.84;5171785;27;40135;-79
2022/10/02 14:00:54;;;;;;;0.60;0.50;;;;;;;17.02;80.79;99069.69;5137890;27;40321;-79
2022/10/02 14:03:34;;;;;;;2.00;0.60;;;;;;;16.85;80.57;99058.59;5153303;27;43467;-79
2022/10/02 14:06:12;;;;;;;0.50;0.50;;;;;;;16.91;80.55;99083.16;5152630;27;42164;-78
2022/10/02 14:08:59;;;;;;;0.50;0.50;;;;;;;16.92;80.58;99079.50;5155836;27;40178;-79
2022/10/02 14:11:40;;;;;;;0.67;0.50;;;;;;;16.95;80.71;99092.59;5155369;27;41872;-78
2022/10/02 14:14:19;;;;;;;0.60;0.60;;;;;;;16.98;80.17;99089.66;5172576;27;42767;-78
2022/10/02 14:17:03;;;;;;;0.50;0.50;;;;;;;16.96;80.22;99086.25;5155266;27;42239;-78
2022/10/02 14:19:54;;;;;;;0.60;0.60;;;;;;;16.95;79.92;99076.53;5158516;27;39084;-78
2022/10/02 14:22:50;;;;;;;0.60;0.60;;;;;;;16.68;80.37;99032.44;5156249;27;42340;-78
2022/10/02 14:25:34;;;;;;;0.50;0.50;;;;;;;17.04;80.04;99083.78;5155962;27;42660;-78
2022/10/02 14:28:40;;;;;;;1.90;0.57;;;;;;;17.05;79.95;99080.16;5141085;27;42259;-78
2022/10/02 14:31:37;;;;;;;1.80;0.60;;;;;;;17.04;79.88;99086.47;5156487;27;39835;-78
2022/10/02 14:34:34;;;;;;;1.67;0.70;;;;;;;17.06;79.72;99090.69;5158560;27;41890;-79
2022/10/02 14:37:32;;;;;;;0.53;0.50;;;;;;;17.06;79.79;99087.19;5159090;27;42667;-78
2022/10/02 14:40:09;;;;;;;0.73;0.60;;;;;;;17.04;79.75;99089.16;5158469;27;41001;-78
2022/10/02 14:42:52;;;;;;;0.87;0.60;;;;;;;16.87;79.94;99078.03;5158722;27;38636;-78
2022/10/02 14:45:47;;;;;;;1.83;0.80;;;;;;;16.94;79.99;99098.94;5158239;27;40370;-78
2022/10/02 14:48:28;;;;;;;0.67;0.67;;;;;;;16.91;80.17;99099.19;5158289;27;41824;-78
2022/10/02 14:51:14;;;;;;;0.97;0.80;;;;;;;16.83;79.70;99098.00;5141269;27;41298;-79
2022/10/02 14:54:01;;;;;;;1.37;1.00;;;;;;;16.77;80.19;99092.31;5176800;27;39995;-79
2022/10/02 14:57:16;;;;;;;1.23;0.87;;;;;;;16.71;80.28;99093.69;5173863;27;42716;-78
2022/10/02 15:00:06;;;;;;;0.70;0.70;;;;;;;16.58;80.04;99082.28;5109577;27;41716;-78
2022/10/02 15:02:54;;;;;;;1.23;1.00;;;;;;;16.69;80.36;99095.63;5158223;27;42602;-79
2022/10/02 15:05:43;;;;;;;0.80;0.80;;;;;;;16.75;80.30;99091.59;5155273;27;40677;-77
2022/10/02 15:08:14;;;;;;;1.10;1.00;;;;;;;16.74;80.26;99088.06;5155655;27;41642;-78
2022/10/02 15:10:42;;;;;;;2.07;1.17;;;;;;;16.77;80.30;99093.19;5154938;27;42748;-78
2022/10/02 15:13:23;;;;;;;1.03;0.93;;;;;;;16.73;80.20;99107.78;5157987;27;41005;-78
2022/10/02 15:18:47;;;;;;;0.90;0.80;;;;;;;16.64;80.20;99097.84;5140081;27;41934;-78
2022/10/02 15:21:25;;;;;;;0.70;0.70;;;;;;;16.60;80.12;99091.03;5173560;27;43605;-77
2022/10/02 15:23:57;;;;;;;1.13;0.90;;;;;;;16.60;80.07;99091.03;5140978;27;41061;-78
2022/10/02 15:26:49;;;;;;;0.80;0.80;;;;;;;16.57;80.23;99088.59;5158423;27;40573;-79
2022/10/02 15:29:33;;;;;;;1.13;0.90;;;;;;;16.53;80.21;99089.84;5139603;27;42756;-79
2022/10/02 15:32:35;;;;;;;1.03;0.93;;;;;;;16.47;80.63;99090.34;5140351;27;44747;-77
2022/10/02 15:35:21;;;;;;;1.30;0.80;;;;;;;16.45;80.61;99100.31;5126362;27;43669;-79
2022/10/02 15:38:06;;;;;;;1.00;0.90;;;;;;;16.43;80.40;99110.31;5157555;27;39913;-77
2022/10/02 15:40:38;;;;;;;1.07;0.97;;;;;;;16.38;80.45;99107.16;5175460;27;41663;-78
2022/10/02 15:43:32;;;;;;;1.10;0.80;;;;;;;16.35;80.86;99110.91;5156913;27;42666;-79
2022/10/02 15:46:11;;;;;;;1.17;0.83;;;;;;;16.32;80.92;99107.66;5154779;27;42613;-78
2022/10/02 15:49:00;;;;;;;1.20;0.80;;;;;;;16.27;80.81;99105.38;5155435;27;40219;-78
2022/10/02 15:51:45;;;;;;;0.80;0.80;;;;;;;16.24;80.86;99110.09;5140330;27;40625;-77
2022/10/02 15:54:28;;;;;;;1.00;0.90;;;;;;;16.15;80.95;99114.38;5156265;27;43472;-78
2022/10/02 15:57:12;;;;;;;1.30;0.90;;;;;;;15.96;81.05;99095.47;5157708;27;43864;-79
2022/10/02 15:59:55;;;;;;;1.60;1.03;;;;;;;15.69;81.20;99061.16;5140273;27;40085;-79
2022/10/02 16:03:11;;;;;;;1.80;0.80;;;;;;;16.06;81.72;99123.16;5157440;27;42255;-79
2022/10/02 16:05:50;;;;;;;0.77;0.77;;;;;;;16.02;81.37;99127.88;5053726;28;41438;-78
2022/10/02 16:08:49;;;;;;;2.00;0.97;;;;;;;15.99;81.53;99133.47;5051415;28;42215;-79
2022/10/02 16:11:55;;;;;;;0.80;0.70;;;;;;;15.97;81.95;99138.06;5137777;27;39789;-79
2022/10/02 16:14:34;;;;;;;1.30;0.90;;;;;;;15.92;81.65;99120.75;5122739;27;41850;-79
2022/10/02 16:17:29;;;;;;;0.63;0.63;;;;;;;15.92;82.07;99121.59;5157054;27;41590;-78
2022/10/02 16:20:09;;;;;;;0.90;0.70;;;;;;;15.86;81.88;99122.06;5156900;27;41287;-77
2022/10/02 16:22:54;;;;;;;0.60;0.60;;;;;;;15.81;82.10;99118.94;5140031;27;40348;-79
2022/10/02 16:25:36;;;;;;;0.80;0.80;;;;;;;15.78;81.93;99127.19;5139501;27;43101;-78
2022/10/02 16:28:17;;;;;;;0.70;0.70;;;;;;;15.73;82.05;99137.34;5156819;27;41639;-79
2022/10/02 16:31:24;;;;;;;0.93;0.73;;;;;;;15.68;82.25;99139.56;5142755;27;42109;-79
2022/10/02 16:34:00;;;;;;;0.70;0.70;;;;;;;15.58;82.71;99135.91;5174274;27;40893;-79
2022/10/02 16:36:40;;;;;;;0.80;0.80;;;;;;;15.56;82.50;99151.19;5139823;27;43518;-79
2022/10/02 16:39:27;;;;;;;1.23;0.67;;;;;;;15.48;82.94;99143.75;5139702;27;42889;-78
2022/10/02 16:42:02;;;;;;;0.50;0.50;;;;;;;15.43;82.90;99157.47;5139684;27;40960;-78
2022/10/02 16:44:55;;;;;;;0.90;0.90;;;;;;;15.36;83.30;99156.22;5139406;27;38761;-79
2022/10/02 16:47:28;;;;;;;0.77;0.77;;;;;;;15.31;83.40;99154.91;5156835;27;43380;-79
2022/10/02 16:50:02;;;;;;;0.87;0.63;;;;;;;15.23;83.04;99155.47;5156210;27;42719;-78
2022/10/02 16:52:34;;;;;;;1.80;0.80;;;;;;;15.22;83.32;99163.59;5140072;27;42485;-79
2022/10/02 16:55:15;;;;;;;0.70;0.70;;;;;;;15.09;83.50;99158.34;5139170;27;40952;-80
2022/10/02 16:57:54;;;;;;;0.60;0.53;;;;;;;15.14;83.48;99169.53;5139795;27;43831;-81
2022/10/02 17:00:28;;;;;;;0.50;0.50;;;;;;;15.08;83.57;99170.81;5139210;27;42876;-80
2022/10/02 17:03:05;;;;;;;0.50;0.50;;;;;;;15.02;83.30;99173.13;5139208;27;41094;-80
2022/10/02 17:05:44;;;;;;;0.53;0.53;;;;;;;14.90;83.54;99174.03;5156929;27;39997;-79
2022/10/02 17:08:20;;;;;;;0.83;0.70;;;;;;;14.97;83.78;99185.94;5156946;27;41673;-79
2022/10/02 17:11:10;;;;;;;1.00;0.90;;;;;;;14.91;83.70;99189.94;5139256;27;44148;-79
2022/10/02 17:13:49;;;;;;;0.70;0.70;;;;;;;14.86;83.89;99185.88;5172144;27;43137;-78
2022/10/02 17:16:23;;;;;;;0.60;0.60;;;;;;;14.71;83.92;99179.91;5156443;27;38456;-79
2022/10/02 17:18:56;;;;;;;0.63;0.63;;;;;;;14.76;84.15;99211.53;5173404;27;41476;-79
2022/10/02 17:21:29;;;;;;;1.67;1.00;;;;;;;14.71;84.29;99223.38;5156293;27;42717;-80
2022/10/02 17:24:20;;;;;;;0.70;0.70;;;;;;;14.67;84.96;99224.59;5156507;27;41903;-82
2022/10/02 17:26:56;;;;;;;1.07;0.90;;;;;;;14.63;84.72;99219.59;5153690;27;40985;-80
2022/10/02 17:29:29;;;;;;;1.03;1.00;;;;;;;14.57;85.17;99220.91;5154978;27;41819;-78
2022/10/02 17:32:00;;;;;;;0.83;0.83;;;;;;;14.52;85.16;99228.38;5171682;27;42786;-80
2022/10/02 17:34:31;;;;;;;6.63;1.00;;;;;;;14.48;85.48;99223.38;5156184;27;42472;-79
2022/10/02 17:37:06;;;;;;;2.30;0.87;;;;;;;14.47;85.32;99230.50;5171954;27;40897;-78
2022/10/02 17:40:03;;;;;;;2.20;0.90;;;;;;;14.44;85.32;99241.41;5156022;27;41750;-78
2022/10/02 17:42:42;;;;;;;0.83;0.63;;;;;;;14.38;85.56;99236.47;5132388;27;44085;-78
2022/10/02 17:45:27;;;;;;;1.60;1.00;;;;;;;14.36;85.72;99249.91;5138348;27;43739;-79
2022/10/02 17:48:14;;;;;;;1.30;1.20;;;;;;;14.23;85.83;99242.91;5171637;27;40056;-76
2022/10/02 17:50:52;;;;;;;1.90;1.33;;;;;;;14.18;85.90;99245.06;5157334;27;40527;-78
2022/10/02 17:56:50;;;;;;;1.40;1.30;;;;;;;14.21;86.06;99276.81;5159968;27;43969;-79
2022/10/02 17:59:47;;;;;;;2.40;1.60;;;;;;;14.16;85.77;99278.94;5142172;27;40292;-78
2022/10/02 18:02:31;;;;;;;2.37;1.47;;;;;;;14.01;86.34;99265.72;5159674;27;40933;-79
2022/10/02 18:05:16;;;;;;;1.70;1.57;;;;;;;14.06;86.47;99278.72;5159323;27;41790;-78
2022/10/02 18:07:58;;;;;;;1.60;1.43;;;;;;;14.03;86.37;99289.59;5142751;27;41508;-78
2022/10/02 18:10:34;;;;;;;1.63;1.53;;;;;;;13.98;86.40;99284.56;5175464;27;39968;-80
2022/10/02 18:13:24;;;;;;;1.60;1.50;;;;;;;13.90;86.51;99272.75;5159801;27;40599;-81
2022/10/02 18:16:21;;;;;;;1.70;1.50;;;;;;;13.93;86.65;99292.06;5142113;27;42944;-80
2022/10/02 18:19:22;;;;;;;2.23;1.30;;;;;;;13.91;87.11;99295.78;5156648;27;41975;-80
2022/10/02 18:22:06;;;;;;;1.67;1.33;;;;;;;13.87;86.90;99297.78;5175079;27;39938;-79
2022/10/02 18:24:52;;;;;;;1.63;1.50;;;;;;;13.83;87.13;99304.31;5159069;27;43109;-78
2022/10/02 18:27:41;;;;;;;2.20;1.63;;;;;;;13.83;87.41;99306.97;5174748;27;42970;-78
2022/10/02 18:30:17;;;;;;;1.13;1.13;;;;;;;13.71;87.26;99289.16;5158838;27;43076;-78
2022/10/02 18:33:24;;;;;;;1.80;1.70;;;;;;;13.79;87.72;99305.47;5174741;27;40956;-78
2022/10/02 18:36:11;;;;;;;2.20;1.57;;;;;;;13.77;87.51;99318.00;5159267;27;42445;-79
2022/10/02 18:38:53;;;;;;;1.77;1.67;;;;;;;13.73;87.63;99319.16;5157264;27;42766;-79
2022/10/02 18:41:40;;;;;;;1.87;1.77;;;;;;;13.69;87.55;99315.03;5155906;27;43130;-79
2022/10/02 18:44:25;;;;;;;1.60;1.50;;;;;;;13.64;87.82;99319.81;5158016;27;39654;-79
2022/10/02 18:47:03;;;;;;;1.80;1.70;;;;;;;13.45;87.96;99295.41;5158594;27;42692;-79
2022/10/02 18:50:02;;;;;;;2.60;1.70;;;;;;;13.55;87.91;99331.06;5141057;27;44279;-78
2022/10/02 18:52:46;;;;;;;2.47;2.27;;;;;;;13.45;88.13;99324.66;5174508;27;43210;-79
2022/10/02 18:55:46;;;;;;;2.97;1.90;;;;;;;13.46;88.65;99350.31;5177016;27;39912;-79
2022/10/02 18:58:24;;;;;;;2.57;1.67;;;;;;;13.38;88.65;99342.84;5134731;27;41881;-79
2022/10/02 19:01:06;;;;;;;2.43;2.20;;;;;;;13.39;88.64;99351.66;5157932;27;41816;-79
2022/10/02 19:03:43;;;;;;;2.97;2.17;;;;;;;13.37;88.95;99353.56;5134214;27;42141;-78
2022/10/02 19:06:17;;;;;;;2.27;2.07;;;;;;;13.34;88.84;99359.97;5140915;27;40947;-80
2022/10/02 19:09:01;;;;;;;2.20;2.00;;;;;;;13.26;89.08;99354.28;5157177;27;41825;-78
2022/10/02 19:11:31;;;;;;;3.03;2.30;;;;;;;13.27;89.07;99350.66;5120192;27;41732;-79
2022/10/02 19:14:02;;;;;;;2.20;1.77;;;;;;;13.16;89.28;99345.19;5150957;27;42477;-79
2022/10/02 19:16:30;;;;;;;2.30;2.10;;;;;;;13.23;89.60;99368.63;5120089;27;41181;-79
2022/10/02 19:19:08;;;;;;;2.40;2.20;;;;;;;13.21;89.95;99370.56;5174720;27;41706;-78
2022/10/02 19:21:38;;;;;;;2.07;1.90;;;;;;;13.18;89.64;99376.06;5157808;27;41764;-79
2022/10/02 19:24:14;;;;;;;2.40;2.20;;;;;;;13.16;89.79;99377.97;5136251;27;42260;-77
2022/10/02 19:26:44;;;;;;;2.30;2.10;;;;;;;13.12;89.46;99381.75;5134513;27;39988;-79
2022/10/02 19:29:24;;;;;;;3.27;2.20;;;;;;;13.12;89.27;99381.75;5153534;27;42642;-79
